createdAt,value
2019-01-06T00:01:53.383Z,101600.00
2019-01-06T00:04:40.963Z,101607.00
2019-01-06T00:07:42.718Z,101615.00
2019-01-06T00:10:28.530Z,101615.00
2019-01-06T00:13:14.242Z,101613.00
2019-01-06T00:16:01.948Z,101621.00
2019-01-06T00:19:09.154Z,101585.00
2019-01-06T00:21:56.326Z,101620.00
2019-01-06T00:25:00.546Z,101403.00
2019-01-06T00:27:48.040Z,101621.00
2019-01-06T00:30:48.322Z,101613.00
2019-01-06T00:33:56.061Z,101402.00
2019-01-06T00:37:02.229Z,101623.00
2019-01-06T00:40:00.249Z,101357.00
2019-01-06T00:42:55.183Z,101621.00
2019-01-06T00:45:44.995Z,101624.00
2019-01-06T00:48:32.495Z,101621.00
2019-01-06T00:51:39.679Z,101621.00
2019-01-06T00:54:39.962Z,101375.00
2019-01-06T00:57:30.688Z,101623.00
2019-01-06T01:00:24.241Z,101418.00
2019-01-06T01:03:31.386Z,101624.00
2019-01-06T01:06:31.494Z,101633.00
2019-01-06T01:09:58.172Z,101624.00
2019-01-06T01:13:00.903Z,101392.00
2019-01-06T01:16:01.120Z,101352.00
2019-01-06T01:19:08.051Z,101474.00
2019-01-06T01:22:07.785Z,101625.00
2019-01-06T01:25:14.965Z,101619.00
2019-01-06T01:28:14.773Z,101623.00
2019-01-06T01:31:17.913Z,101624.00
2019-01-06T01:34:25.261Z,101625.00
2019-01-06T01:37:25.565Z,101410.00
2019-01-06T01:40:32.544Z,101614.00
2019-01-06T01:43:26.554Z,101623.00
2019-01-06T01:46:29.345Z,101627.00
2019-01-06T01:49:22.935Z,101628.00
2019-01-06T01:52:30.770Z,101330.00
2019-01-06T01:55:31.067Z,101306.00
2019-01-06T01:58:38.022Z,101646.00
2019-01-06T02:04:44.414Z,101634.00
2019-01-06T02:07:51.569Z,101414.00
2019-01-06T02:11:01.631Z,101633.00
2019-01-06T02:14:02.067Z,101509.00
2019-01-06T02:16:59.306Z,101627.00
2019-01-06T02:19:47.157Z,101635.00
2019-01-06T02:22:48.256Z,101522.00
2019-01-06T02:25:55.207Z,101638.00
2019-01-06T02:29:03.833Z,101641.00
2019-01-06T02:32:03.986Z,101454.00
2019-01-06T02:35:11.012Z,101647.00
2019-01-06T02:38:11.578Z,101558.00
2019-01-06T02:41:18.739Z,101485.00
2019-01-06T02:44:22.653Z,101641.00
2019-01-06T02:47:31.526Z,101644.00
2019-01-06T02:50:32.005Z,101646.00
2019-01-06T02:53:38.956Z,101650.00
2019-01-06T02:56:26.440Z,101650.00
2019-01-06T02:59:33.454Z,101609.00
2019-01-06T03:02:26.457Z,101647.00
2019-01-06T03:05:29.241Z,101649.00
2019-01-06T03:08:19.271Z,101655.00
2019-01-06T03:11:06.789Z,101640.00
2019-01-06T03:16:50.295Z,101636.00
2019-01-06T03:19:52.688Z,101433.00
2019-01-06T03:22:40.212Z,101646.00
2019-01-06T03:25:37.879Z,101639.00
2019-01-06T03:28:23.580Z,101633.00
2019-01-06T03:31:11.274Z,101624.00
2019-01-06T03:33:58.790Z,101620.00
2019-01-06T03:36:46.302Z,101619.00
2019-01-06T03:43:08.115Z,101619.00
2019-01-06T03:45:57.693Z,101628.00
2019-01-06T03:48:51.622Z,101410.00
2019-01-06T03:51:48.252Z,101618.00
2019-01-06T03:54:35.940Z,101617.00
2019-01-06T03:57:43.467Z,101417.00
2019-01-06T04:00:41.764Z,101617.00
2019-01-06T04:03:27.984Z,101608.00
2019-01-06T04:06:15.446Z,101605.00
2019-01-06T04:09:09.802Z,101603.00
2019-01-06T04:12:16.952Z,101599.00
2019-01-06T04:15:17.363Z,101612.00
2019-01-06T04:18:24.498Z,101608.00
2019-01-06T04:21:25.078Z,101439.00
2019-01-06T04:24:32.799Z,101505.00
2019-01-06T04:27:36.314Z,101602.00
2019-01-06T04:30:36.992Z,101604.00
2019-01-06T04:33:24.504Z,101609.00
2019-01-06T04:36:25.188Z,101472.00
2019-01-06T04:39:32.158Z,101351.00
2019-01-06T04:42:32.848Z,101542.00
2019-01-06T04:45:35.518Z,101451.00
2019-01-06T04:48:42.878Z,101619.00
2019-01-06T04:51:42.717Z,101676.00
2019-01-06T04:54:38.346Z,101606.00
2019-01-06T04:57:26.073Z,101614.00
2019-01-06T05:00:26.342Z,101613.00
2019-01-06T05:03:33.665Z,101489.00
2019-01-06T05:06:32.053Z,101612.00
2019-01-06T05:09:35.466Z,101615.00
2019-01-06T05:12:35.455Z,101617.00
2019-01-06T05:15:22.982Z,101612.00
2019-01-06T05:18:29.912Z,101393.00
2019-01-06T05:21:17.904Z,101604.00
2019-01-06T05:24:25.093Z,101316.00
2019-01-06T05:27:12.785Z,101603.00
2019-01-06T05:30:12.906Z,101605.00
2019-01-06T05:33:13.589Z,101468.00
2019-01-06T05:39:09.917Z,101612.00
2019-01-06T05:41:49.986Z,101607.00
2019-01-06T05:44:37.453Z,101601.00
2019-01-06T05:47:25.079Z,101612.00
2019-01-06T05:50:28.342Z,101619.00
2019-01-06T05:53:28.878Z,101367.00
2019-01-06T05:56:29.429Z,101326.00
2019-01-06T05:59:29.172Z,101620.00
2019-01-06T06:02:36.940Z,101460.00
2019-01-06T06:05:24.406Z,101619.00
2019-01-06T06:08:14.676Z,101624.00
2019-01-06T06:11:02.132Z,101634.00
2019-01-06T06:13:49.761Z,101635.00
2019-01-06T06:16:53.366Z,101477.00
2019-01-06T06:20:00.532Z,101512.00
2019-01-06T06:23:04.465Z,101637.00
2019-01-06T06:26:07.999Z,101449.00
2019-01-06T06:29:08.022Z,101652.00
2019-01-06T06:32:15.784Z,101661.00
2019-01-06T06:35:16.583Z,101554.00
2019-01-06T06:38:23.727Z,101408.00
2019-01-06T06:41:24.588Z,101537.00
2019-01-06T06:44:31.759Z,101655.00
2019-01-06T06:47:38.729Z,101476.00
2019-01-06T06:50:46.319Z,101394.00
2019-01-06T06:53:41.376Z,101477.00
2019-01-06T06:56:48.933Z,101665.00
2019-01-06T06:59:51.151Z,101397.00
2019-01-06T07:03:25.968Z,101675.00
2019-01-06T07:06:27.494Z,101668.00
2019-01-06T07:09:05.614Z,101666.00
2019-01-06T07:11:53.780Z,101667.00
2019-01-06T07:14:47.749Z,101676.00
2019-01-06T07:18:14.353Z,101685.00
2019-01-06T07:21:05.844Z,101682.00
2019-01-06T07:23:53.513Z,101684.00
2019-01-06T07:26:42.077Z,101690.00
2019-01-06T07:29:38.472Z,101701.00
2019-01-06T07:32:31.617Z,101692.00
2019-01-06T07:35:17.659Z,101700.00
2019-01-06T07:38:23.426Z,101702.00
2019-01-06T07:41:19.934Z,101709.00
2019-01-06T07:47:25.890Z,101650.00
2019-01-06T07:50:33.024Z,101720.00
2019-01-06T07:56:47.558Z,101730.00
2019-01-06T07:59:50.579Z,101728.00
2019-01-06T08:02:56.479Z,101495.00
2019-01-06T08:06:00.487Z,101749.00
2019-01-06T08:09:07.672Z,101736.00
2019-01-06T08:11:58.989Z,101673.00
2019-01-06T08:15:06.290Z,101520.00
2019-01-06T08:18:07.753Z,101607.00
2019-01-06T08:21:15.704Z,101756.00
2019-01-06T08:27:26.102Z,101763.00
2019-01-06T08:30:14.313Z,101767.00
2019-01-06T08:33:01.834Z,101764.00
2019-01-06T08:35:44.298Z,101768.00
2019-01-06T08:41:43.486Z,101767.00
2019-01-06T08:44:31.377Z,101771.00
2019-01-06T08:47:21.669Z,101771.00
2019-01-06T08:50:23.859Z,101648.00
2019-01-06T08:53:31.046Z,101683.00
2019-01-06T08:56:18.708Z,101778.00
2019-01-06T08:59:06.253Z,101787.00
2019-01-06T09:01:56.437Z,101774.00
2019-01-06T09:04:50.111Z,101788.00
2019-01-06T09:07:32.987Z,101780.00
2019-01-06T09:10:20.700Z,101779.00
2019-01-06T09:13:21.419Z,101886.00
2019-01-06T09:16:28.636Z,101598.00
2019-01-06T09:19:28.711Z,101786.00
2019-01-06T09:22:37.114Z,101444.00
2019-01-06T09:25:24.999Z,101795.00
2019-01-06T09:28:32.185Z,101572.00
2019-01-06T09:31:38.320Z,101792.00
2019-01-06T09:34:45.349Z,101813.00
2019-01-06T09:40:51.874Z,101814.00
2019-01-06T09:43:39.733Z,101815.00
2019-01-06T09:46:30.513Z,101809.00
2019-01-06T09:49:37.882Z,101810.00
2019-01-06T09:52:34.241Z,101805.00
2019-01-06T09:55:22.052Z,101800.00
2019-01-06T09:58:29.323Z,101594.00
2019-01-06T10:01:32.272Z,101828.00
2019-01-06T10:04:20.540Z,101799.00
2019-01-06T10:07:21.799Z,101799.00
2019-01-06T10:10:28.957Z,101648.00
2019-01-06T10:13:29.552Z,101754.00
2019-01-06T10:16:40.141Z,101716.00
2019-01-06T10:19:42.038Z,101798.00
2019-01-06T10:22:49.835Z,101622.00
2019-01-06T10:25:49.839Z,101641.00
2019-01-06T10:28:57.168Z,101808.00
2019-01-06T10:35:05.648Z,101800.00
2019-01-06T10:37:53.476Z,101797.00
2019-01-06T10:40:46.992Z,101872.00
2019-01-06T10:43:47.754Z,101795.00
2019-01-06T10:46:55.423Z,101712.00
2019-01-06T10:49:42.952Z,101793.00
2019-01-06T10:55:41.367Z,101798.00
2019-01-06T10:58:29.907Z,101797.00
2019-01-06T11:01:29.929Z,101801.00
2019-01-06T11:04:17.962Z,101800.00
2019-01-06T11:07:21.539Z,101555.00
2019-01-06T11:10:10.115Z,101801.00
2019-01-06T11:12:56.328Z,101809.00
2019-01-06T11:15:43.631Z,101805.00
2019-01-06T11:18:31.359Z,101805.00
2019-01-06T11:21:19.377Z,101805.00
2019-01-06T11:24:32.077Z,101808.00
2019-01-06T11:27:19.782Z,101808.00
2019-01-06T11:30:07.351Z,101799.00
2019-01-06T11:33:07.540Z,101810.00
2019-01-06T11:36:14.613Z,101811.00
2019-01-06T11:39:15.052Z,101804.00
2019-01-06T11:42:02.620Z,101800.00
2019-01-06T11:45:03.799Z,101814.00
2019-01-06T11:47:51.416Z,101805.00
2019-01-06T11:50:40.083Z,101804.00
2019-01-06T11:56:34.324Z,101796.00
2019-01-06T11:59:22.682Z,101799.00
2019-01-06T12:02:29.455Z,101577.00
2019-01-06T12:05:17.062Z,101792.00
2019-01-06T12:07:56.415Z,101795.00
2019-01-06T12:10:44.533Z,101786.00
2019-01-06T12:13:37.510Z,101781.00
2019-01-06T12:16:25.519Z,101788.00
2019-01-06T12:19:33.650Z,101783.00
2019-01-06T12:22:34.219Z,101782.00
2019-01-06T12:25:34.177Z,101784.00
2019-01-06T12:28:22.253Z,101791.00
2019-01-06T12:31:10.218Z,101795.00
2019-01-06T12:34:21.056Z,101806.00
2019-01-06T12:40:24.235Z,101808.00
2019-01-06T12:43:24.741Z,101608.00
2019-01-06T12:46:14.260Z,101597.00
2019-01-06T12:49:21.606Z,101721.00
2019-01-06T12:52:24.039Z,101805.00
2019-01-06T12:55:27.969Z,101602.00
2019-01-06T12:58:38.298Z,101909.00
2019-01-06T13:01:39.198Z,101685.00
2019-01-06T13:04:46.547Z,101620.00
2019-01-06T13:10:54.974Z,101828.00
2019-01-06T13:13:56.288Z,101689.00
2019-01-06T13:17:03.987Z,101864.00
2019-01-06T13:19:51.675Z,101831.00
2019-01-06T13:22:39.540Z,101828.00
2019-01-06T13:25:26.370Z,101841.00
2019-01-06T13:28:28.295Z,101661.00
2019-01-06T13:31:29.475Z,101845.00
2019-01-06T13:34:39.043Z,101852.00
2019-01-06T13:37:39.573Z,101873.00
2019-01-06T13:40:43.036Z,101847.00
2019-01-06T13:43:48.347Z,101711.00
2019-01-06T13:46:48.428Z,101857.00
2019-01-06T13:49:55.625Z,101885.00
2019-01-06T13:52:56.418Z,101606.00
2019-01-06T13:55:56.408Z,101870.00
2019-01-06T13:59:03.597Z,101703.00
2019-01-06T14:02:04.406Z,101937.00
2019-01-06T14:05:01.088Z,101993.00
2019-01-06T14:08:01.469Z,101803.00
2019-01-06T14:11:09.350Z,101875.00
2019-01-06T14:13:57.281Z,101870.00
2019-01-06T14:17:04.608Z,101870.00
2019-01-06T14:19:52.300Z,101877.00
2019-01-06T14:22:40.154Z,101875.00
2019-01-06T14:25:27.959Z,101884.00
2019-01-06T14:28:35.635Z,101880.00
2019-01-06T14:31:23.578Z,101887.00
2019-01-06T14:34:32.416Z,101787.00
2019-01-06T14:37:38.937Z,101829.00
2019-01-06T14:40:40.163Z,101955.00
2019-01-06T14:43:32.483Z,101890.00
2019-01-06T14:46:45.445Z,101887.00
2019-01-06T14:53:01.478Z,101771.00
2019-01-06T14:56:11.244Z,101633.00
2019-01-06T14:59:14.711Z,101676.00
2019-01-06T15:02:10.012Z,101895.00
2019-01-06T15:05:19.507Z,101900.00
2019-01-06T15:08:19.330Z,101900.00
2019-01-06T15:11:27.019Z,101653.00
2019-01-06T15:17:04.155Z,101903.00
2019-01-06T15:19:52.324Z,101907.00
2019-01-06T15:25:42.247Z,101912.00
2019-01-06T15:28:30.032Z,101909.00
2019-01-06T15:31:35.924Z,101650.00
2019-01-06T15:34:43.388Z,101910.00
2019-01-06T15:37:45.807Z,101921.00
2019-01-06T15:40:46.344Z,101799.00
2019-01-06T15:43:46.517Z,101959.00
2019-01-06T15:49:40.533Z,101931.00
2019-01-06T15:52:46.749Z,101924.00
2019-01-06T15:55:53.333Z,101931.00
2019-01-06T15:58:40.972Z,101925.00
2019-01-06T16:01:24.318Z,101928.00
2019-01-06T16:04:29.110Z,101827.00
2019-01-06T16:07:37.359Z,101897.00
2019-01-06T16:10:41.737Z,101895.00
2019-01-06T16:13:57.472Z,101858.00
2019-01-06T16:17:05.612Z,101954.00
2019-01-06T16:20:08.665Z,101747.00
2019-01-06T16:23:19.793Z,101763.00
2019-01-06T16:26:19.129Z,101806.00
2019-01-06T16:29:09.318Z,101946.00
2019-01-06T16:32:17.243Z,101954.00
2019-01-06T16:35:24.761Z,101958.00
2019-01-06T16:41:35.470Z,101952.00
2019-01-06T16:44:24.943Z,101865.00
2019-01-06T16:50:14.176Z,101955.00
2019-01-06T16:56:19.570Z,101967.00
2019-01-06T16:59:26.954Z,102039.00
2019-01-06T17:02:23.388Z,101961.00
2019-01-06T17:05:10.189Z,101962.00
2019-01-06T17:10:51.335Z,101955.00
2019-01-06T17:13:43.030Z,101957.00
2019-01-06T17:16:44.656Z,101955.00
2019-01-06T17:19:56.467Z,101838.00
2019-01-06T17:22:53.216Z,101962.00
2019-01-06T17:25:46.612Z,101958.00
2019-01-06T17:28:32.981Z,101964.00
2019-01-06T17:31:11.458Z,101960.00
2019-01-06T17:33:58.037Z,101948.00
2019-01-06T17:39:42.859Z,101953.00
2019-01-06T17:42:42.402Z,102025.00
2019-01-06T17:45:49.804Z,101947.00
2019-01-06T17:48:51.374Z,101771.00
2019-01-06T17:54:45.570Z,101735.00
2019-01-06T17:57:54.219Z,101966.00
2019-01-06T18:01:20.447Z,101847.00
2019-01-06T18:04:17.999Z,101827.00
2019-01-06T18:07:24.692Z,102000.00
2019-01-06T18:10:25.728Z,101969.00
2019-01-06T18:13:33.655Z,101862.00
2019-01-06T18:16:40.491Z,101966.00
2019-01-06T18:19:41.795Z,102088.00
2019-01-06T18:25:55.558Z,101984.00
2019-01-06T18:29:04.843Z,101801.00
2019-01-06T18:32:11.667Z,101779.00
2019-01-06T18:34:57.441Z,101990.00
2019-01-06T18:38:04.880Z,101750.00
2019-01-06T18:41:12.596Z,101991.00
2019-01-06T18:44:13.373Z,101986.00
2019-01-06T18:47:26.073Z,101869.00
2019-01-06T18:50:26.361Z,102029.00
2019-01-06T18:53:26.093Z,101860.00
2019-01-06T18:56:34.084Z,101993.00
2019-01-06T18:59:22.113Z,101989.00
2019-01-06T19:02:29.524Z,101987.00
2019-01-06T19:08:27.413Z,101986.00
2019-01-06T19:11:23.796Z,101988.00
2019-01-06T19:14:13.603Z,101988.00
2019-01-06T19:17:01.257Z,101992.00
2019-01-06T19:19:50.522Z,101985.00
2019-01-06T19:23:02.019Z,101780.00
2019-01-06T19:25:50.556Z,101994.00
2019-01-06T19:28:57.106Z,101986.00
2019-01-06T19:32:03.415Z,101993.00
2019-01-06T19:34:55.088Z,101993.00
2019-01-06T19:37:48.506Z,101993.00
2019-01-06T19:40:36.733Z,101995.00
2019-01-06T19:43:39.128Z,101950.00
2019-01-06T19:46:46.361Z,101981.00
2019-01-06T19:49:34.092Z,102003.00
2019-01-06T19:52:41.799Z,101809.00
2019-01-06T19:55:29.512Z,102002.00
2019-01-06T19:58:17.328Z,102010.00
2019-01-06T20:01:05.128Z,102019.00
2019-01-06T20:04:07.976Z,101925.00
2019-01-06T20:07:15.385Z,101776.00
2019-01-06T20:10:17.060Z,102042.00
2019-01-06T20:13:24.510Z,102005.00
2019-01-06T20:16:29.447Z,101895.00
2019-01-06T20:19:20.398Z,101907.00
2019-01-06T20:22:27.557Z,102012.00
2019-01-06T20:25:28.840Z,102021.00
2019-01-06T20:28:16.802Z,102011.00
2019-01-06T20:31:24.238Z,101789.00
2019-01-06T20:34:24.189Z,102017.00
2019-01-06T20:37:31.564Z,101803.00
2019-01-06T20:40:19.303Z,102019.00
2019-01-06T20:46:26.093Z,102023.00
2019-01-06T20:49:13.694Z,102026.00
2019-01-06T20:52:14.230Z,101843.00
2019-01-06T20:55:02.255Z,102030.00
2019-01-06T20:58:11.412Z,101751.00
2019-01-06T21:01:18.766Z,101884.00
2019-01-06T21:04:25.250Z,102011.00
2019-01-06T21:07:32.862Z,101928.00
2019-01-06T21:10:39.430Z,101811.00
2019-01-06T21:13:46.482Z,102019.00
2019-01-06T21:16:34.195Z,102029.00
2019-01-06T21:19:22.035Z,102029.00
2019-01-06T21:22:08.211Z,102028.00
2019-01-06T21:24:55.286Z,102040.00
2019-01-06T21:27:45.718Z,102041.00
2019-01-06T21:30:33.455Z,102048.00
2019-01-06T21:33:21.224Z,102044.00
2019-01-06T21:36:21.289Z,101947.00
2019-01-06T21:39:28.604Z,102038.00
2019-01-06T21:42:16.231Z,102041.00
2019-01-06T21:45:02.335Z,102043.00
2019-01-06T21:47:48.381Z,102038.00
2019-01-06T21:50:28.933Z,102045.00
2019-01-06T21:53:16.083Z,102047.00
2019-01-06T21:56:03.800Z,102046.00
2019-01-06T21:59:11.086Z,102045.00
2019-01-06T22:02:17.067Z,102042.00
2019-01-06T22:05:24.439Z,101870.00
2019-01-06T22:08:25.363Z,102047.00
2019-01-06T22:11:26.417Z,101955.00
2019-01-06T22:14:36.223Z,102043.00
2019-01-06T22:17:40.243Z,102034.00
2019-01-06T22:20:40.451Z,101880.00
2019-01-06T22:23:47.519Z,101805.00
2019-01-06T22:26:48.678Z,102045.00
2019-01-06T22:29:55.837Z,102010.00
2019-01-06T22:32:56.798Z,102030.00
2019-01-06T22:35:57.633Z,102029.00
2019-01-06T22:38:52.332Z,101942.00
2019-01-06T22:41:39.889Z,102028.00
2019-01-06T22:44:46.939Z,101871.00
2019-01-06T22:47:46.978Z,101876.00
2019-01-06T22:50:23.007Z,102039.00
2019-01-06T22:53:24.816Z,102007.00
2019-01-06T22:56:18.405Z,102041.00
2019-01-06T22:59:05.936Z,102040.00
2019-01-06T23:01:53.646Z,102038.00
2019-01-06T23:05:00.790Z,101817.00
2019-01-06T23:08:02.468Z,102034.00
2019-01-06T23:11:09.793Z,102038.00
2019-01-06T23:17:05.659Z,102039.00
2019-01-06T23:19:51.949Z,102038.00
2019-01-06T23:22:39.702Z,102036.00
2019-01-06T23:25:43.757Z,101880.00
2019-01-06T23:28:31.330Z,102041.00
2019-01-06T23:31:21.382Z,102046.00
2019-01-06T23:34:28.604Z,102024.00
2019-01-06T23:37:24.164Z,101967.00
2019-01-06T23:40:31.601Z,101956.00
2019-01-06T23:43:35.185Z,102148.00
2019-01-06T23:46:42.160Z,101816.00
2019-01-06T23:49:43.667Z,102038.00
2019-01-06T23:52:31.382Z,102042.00
2019-01-06T23:55:31.672Z,102045.00
2019-01-06T23:58:19.315Z,102040.00
